Time;durP1;ratioP1;P1;durP2;ratioP2;P2;SDS_P1;SDS_P2;PMS_P1;PMS_P2;Temp;Humidity;BMP_temperature;BMP_pressure;BME280_temperature;BME280_humidity;BME280_pressure;Samples;Min_cycle;Max_cycle;Signal;HPM_P1;HPM_P2
2022/06/16 00:01:07;;;;;;;2.13;1.70;;;21.90;54.70;;;;;;4953953;29;20651;-80
2022/06/16 00:03:33;;;;;;;4.20;1.47;;;21.90;54.70;;;;;;4955898;29;20631;-80
2022/06/16 00:05:59;;;;;;;3.83;1.40;;;21.90;54.70;;;;;;4955769;28;20962;-81
2022/06/16 00:08:25;;;;;;;3.17;1.83;;;21.90;54.70;;;;;;4954434;29;20188;-81
2022/06/16 00:13:38;;;;;;;7.00;2.00;;;21.90;54.90;;;;;;4954352;29;20637;-80
2022/06/16 00:16:05;;;;;;;17.60;4.63;;;21.90;54.90;;;;;;4955387;28;21159;-81
2022/06/16 00:18:31;;;;;;;8.50;2.07;;;21.90;54.90;;;;;;4955691;29;20587;-81
2022/06/16 00:20:58;;;;;;;2.83;1.40;;;21.90;55.00;;;;;;4955843;28;20607;-81
2022/06/16 00:23:23;;;;;;;2.70;1.23;;;21.90;55.10;;;;;;4955579;29;21368;-80
2022/06/16 00:25:49;;;;;;;2.90;1.60;;;21.90;55.10;;;;;;4953938;28;20583;-80
2022/06/16 00:28:15;;;;;;;3.43;1.60;;;21.80;55.10;;;;;;4955307;28;20634;-80
2022/06/16 00:30:41;;;;;;;2.97;1.50;;;21.80;55.20;;;;;;4953281;29;20168;-81
2022/06/16 00:33:07;;;;;;;2.30;1.30;;;21.80;55.30;;;;;;4955159;28;20778;-80
2022/06/16 00:35:33;;;;;;;4.20;1.40;;;21.80;55.50;;;;;;4938315;29;20957;-80
2022/06/16 00:38:00;;;;;;;3.60;1.40;;;21.70;55.50;;;;;;4955300;28;21062;-80
2022/06/16 00:40:27;;;;;;;4.23;1.70;;;21.70;55.70;;;;;;4953607;29;20627;-81
2022/06/16 00:42:53;;;;;;;2.50;1.27;;;21.70;55.80;;;;;;4938307;29;20576;-78
2022/06/16 00:46:00;;;;;;;3.70;1.50;;;21.70;55.90;;;;;;4954162;29;20655;-79
2022/06/16 00:49:06;;;;;;;4.83;1.37;;;21.70;56.20;;;;;;4955309;29;20576;-80
2022/06/16 00:51:46;;;;;;;7.30;2.10;;;21.70;56.20;;;;;;4895166;29;20603;-80
2022/06/16 00:54:19;;;;;;;2.83;1.70;;;21.70;56.40;;;;;;4864708;29;20642;-80
2022/06/16 00:56:49;;;;;;;2.50;1.33;;;21.60;56.50;;;;;;4928900;28;20663;-80
2022/06/16 00:59:15;;;;;;;2.73;1.37;;;21.60;56.40;;;;;;4953637;29;20696;-80
2022/06/16 01:01:44;;;;;;;1.90;1.20;;;21.60;56.60;;;;;;4952762;29;20667;-80
2022/06/16 01:06:57;;;;;;;5.57;2.43;;;21.50;56.90;;;;;;4954693;28;21182;-79
2022/06/16 01:09:27;;;;;;;4.83;1.53;;;21.50;57.00;;;;;;4954333;28;21116;-79
2022/06/16 01:15:22;;;;;;;3.00;1.60;;;21.40;57.60;;;;;;4953378;29;20580;-79
2022/06/16 01:17:57;;;;;;;1.80;1.20;;;21.40;57.40;;;;;;4954480;28;20612;-80
2022/06/16 01:21:00;;;;;;;3.70;1.50;;;21.40;57.60;;;;;;4954022;28;20576;-80
2022/06/16 01:23:41;;;;;;;3.50;1.27;;;21.40;58.10;;;;;;4952828;29;20579;-79
2022/06/16 01:26:36;;;;;;;3.70;1.40;;;21.30;58.00;;;;;;4954096;28;20607;-80
2022/06/16 01:29:11;;;;;;;3.63;1.20;;;21.30;58.40;;;;;;4952935;29;21155;-80
2022/06/16 01:31:50;;;;;;;8.90;1.50;;;21.30;58.60;;;;;;4953562;29;21178;-80
2022/06/16 01:34:37;;;;;;;2.57;1.57;;;21.20;58.80;;;;;;4956432;29;20635;-80
2022/06/16 01:37:30;;;;;;;5.30;1.90;;;21.20;59.20;;;;;;4936632;29;20761;-79
2022/06/16 01:40:07;;;;;;;2.37;1.07;;;21.10;59.40;;;;;;4953681;28;20608;-80
2022/06/16 01:42:42;;;;;;;1.93;1.40;;;21.10;59.40;;;;;;4952525;29;20615;-78
2022/06/16 01:45:25;;;;;;;2.97;1.43;;;21.10;59.80;;;;;;4953823;28;20634;-79
2022/06/16 01:47:52;;;;;;;2.80;1.30;;;21.00;60.20;;;;;;4952713;28;20595;-79
2022/06/16 01:50:36;;;;;;;4.80;1.40;;;21.00;60.00;;;;;;4952529;29;20580;-78
2022/06/16 01:53:14;;;;;;;3.77;1.53;;;21.00;60.70;;;;;;4952373;29;20650;-79
2022/06/16 01:55:46;;;;;;;6.40;1.93;;;20.90;61.10;;;;;;4952783;28;20588;-79
2022/06/16 01:58:21;;;;;;;5.27;1.73;;;20.90;61.20;;;;;;4952542;29;20572;-79
2022/06/16 02:00:52;;;;;;;2.70;1.67;;;20.90;61.60;;;;;;4951992;29;20568;-79
2022/06/16 02:03:27;;;;;;;2.00;1.33;;;20.90;61.80;;;;;;4952459;29;20588;-79
2022/06/16 02:05:58;;;;;;;3.17;1.70;;;20.80;62.40;;;;;;4952414;28;20640;-80
2022/06/16 02:08:32;;;;;;;6.43;2.47;;;20.80;62.60;;;;;;4953321;29;20618;-80
2022/06/16 02:11:10;;;;;;;2.80;1.30;;;20.80;63.10;;;;;;4953023;29;20586;-80
2022/06/16 02:13:43;;;;;;;4.00;1.50;;;20.70;63.10;;;;;;4952526;29;20634;-79
2022/06/16 02:16:27;;;;;;;2.80;1.60;;;20.70;63.40;;;;;;4952431;28;20608;-80
2022/06/16 02:18:55;;;;;;;3.83;3.00;;;20.60;64.20;;;;;;4952584;29;21126;-80
2022/06/16 02:21:34;;;;;;;3.37;1.93;;;20.60;63.80;;;;;;4951301;29;20603;-80
2022/06/16 02:24:02;;;;;;;3.10;1.67;;;20.60;64.50;;;;;;4952441;29;20576;-80
2022/06/16 02:26:28;;;;;;;2.60;1.20;;;20.60;64.90;;;;;;4936192;29;20635;-80
2022/06/16 02:28:57;;;;;;;2.80;1.30;;;20.50;65.30;;;;;;4953801;28;20788;-81
2022/06/16 02:31:32;;;;;;;2.87;1.80;;;20.50;65.80;;;;;;4951642;29;21179;-80
2022/06/16 02:34:31;;;;;;;2.43;1.57;;;20.50;66.50;;;;;;4938206;29;20689;-79
2022/06/16 02:37:02;;;;;;;2.63;1.27;;;20.50;67.10;;;;;;4957149;28;20604;-79
2022/06/16 02:39:57;;;;;;;5.77;1.63;;;20.50;67.10;;;;;;4957256;29;20583;-79
2022/06/16 02:42:32;;;;;;;2.10;1.57;;;20.40;67.70;;;;;;4956949;28;20571;-79
2022/06/16 02:45:25;;;;;;;2.60;1.60;;;20.40;67.60;;;;;;4957436;28;21203;-80
2022/06/16 02:48:12;;;;;;;2.10;1.33;;;20.40;68.30;;;;;;4958328;28;20608;-80
2022/06/16 02:50:41;;;;;;;1.80;1.30;;;20.40;68.50;;;;;;4954926;29;20736;-80
2022/06/16 02:56:41;;;;;;;4.50;1.50;;;20.30;69.40;;;;;;4955607;28;20610;-80
2022/06/16 02:59:13;;;;;;;6.03;1.70;;;20.30;69.40;;;;;;4955913;29;20626;-80
2022/06/16 03:01:41;;;;;;;5.40;1.63;;;20.20;69.60;;;;;;4955172;29;20575;-80
2022/06/16 03:04:16;;;;;;;6.57;1.73;;;20.20;70.00;;;;;;4956919;29;20686;-80
2022/06/16 03:06:45;;;;;;;2.60;1.40;;;20.10;70.90;;;;;;4955503;28;20219;-79
2022/06/16 03:09:12;;;;;;;2.77;1.40;;;20.10;71.60;;;;;;4955534;29;20588;-79
2022/06/16 03:11:39;;;;;;;2.80;1.43;;;20.10;71.30;;;;;;4938781;29;20588;-79
2022/06/16 03:14:09;;;;;;;2.70;1.60;;;20.00;71.70;;;;;;4940095;29;20663;-80
2022/06/16 03:16:39;;;;;;;3.10;1.63;;;20.00;72.00;;;;;;4955445;28;21062;-79
2022/06/16 03:19:05;;;;;;;2.97;1.87;;;20.00;72.50;;;;;;4939540;29;20668;-80
2022/06/16 03:21:32;;;;;;;4.87;1.40;;;20.00;73.00;;;;;;4938591;29;20679;-79
2022/06/16 03:23:57;;;;;;;1.87;1.20;;;20.00;73.20;;;;;;4957809;29;20635;-80
2022/06/16 03:26:25;;;;;;;2.20;1.50;;;19.90;73.50;;;;;;4955089;28;20722;-80
2022/06/16 03:28:54;;;;;;;2.77;1.73;;;19.90;74.10;;;;;;4955370;29;20580;-80
2022/06/16 03:31:20;;;;;;;4.17;1.53;;;19.90;74.30;;;;;;4938253;29;20595;-81
2022/06/16 03:33:48;;;;;;;4.63;1.80;;;19.90;74.70;;;;;;4954978;29;20646;-80
2022/06/16 03:36:14;;;;;;;3.93;1.83;;;19.80;74.90;;;;;;4955221;28;20603;-80
2022/06/16 03:38:43;;;;;;;2.20;1.40;;;19.80;75.30;;;;;;4955389;29;20200;-80
2022/06/16 03:41:12;;;;;;;2.63;1.70;;;19.80;75.70;;;;;;4954463;29;20572;-80
2022/06/16 03:43:39;;;;;;;3.23;1.50;;;19.70;76.10;;;;;;4954998;28;21046;-81
2022/06/16 03:46:18;;;;;;;2.23;1.20;;;19.70;76.40;;;;;;4955129;28;20615;-80
2022/06/16 03:48:57;;;;;;;2.90;1.37;;;19.70;76.50;;;;;;4956387;29;20623;-80
2022/06/16 03:51:37;;;;;;;2.83;1.60;;;19.70;76.80;;;;;;4958399;29;20576;-78
2022/06/16 03:54:03;;;;;;;2.23;1.33;;;19.60;77.10;;;;;;4961858;29;20628;-80
2022/06/16 03:56:29;;;;;;;4.47;1.57;;;19.60;77.30;;;;;;4964557;29;20608;-80
2022/06/16 03:58:56;;;;;;;3.80;1.60;;;19.60;77.80;;;;;;4970822;28;20590;-80
2022/06/16 04:01:23;;;;;;;4.07;1.30;;;19.60;78.20;;;;;;4956694;29;20587;-80
2022/06/16 04:04:01;;;;;;;4.23;1.70;;;19.60;78.20;;;;;;4954573;29;20667;-80
2022/06/16 04:06:40;;;;;;;3.10;1.47;;;19.60;78.50;;;;;;4954895;28;21178;-80
2022/06/16 04:09:06;;;;;;;5.03;1.70;;;19.50;78.50;;;;;;4954457;29;20572;-81
2022/06/16 04:11:35;;;;;;;1.70;1.17;;;19.50;78.70;;;;;;4955092;28;20564;-80
2022/06/16 04:14:09;;;;;;;2.37;1.70;;;19.50;79.00;;;;;;4954443;29;20631;-79
2022/06/16 04:16:49;;;;;;;2.80;1.80;;;19.50;79.50;;;;;;4938395;29;21206;-80
2022/06/16 04:19:21;;;;;;;2.33;1.63;;;19.50;79.90;;;;;;4938774;29;20927;-80
2022/06/16 04:21:49;;;;;;;3.97;1.60;;;19.40;80.10;;;;;;4938028;29;20925;-80
2022/06/16 04:24:23;;;;;;;4.53;1.73;;;19.40;80.20;;;;;;4954641;29;20579;-80
2022/06/16 04:26:54;;;;;;;2.43;1.40;;;19.40;80.70;;;;;;4945348;29;20667;-80
2022/06/16 04:29:20;;;;;;;3.47;1.87;;;19.40;81.00;;;;;;4946646;29;20646;-80
2022/06/16 04:31:48;;;;;;;6.57;1.63;;;19.40;81.40;;;;;;4947654;29;20743;-80
2022/06/16 04:34:14;;;;;;;3.80;1.70;;;19.40;81.90;;;;;;4954222;23;20672;-79
2022/06/16 04:36:41;;;;;;;3.23;1.80;;;19.40;82.00;;;;;;4939707;29;20625;-80
2022/06/16 04:39:12;;;;;;;2.50;1.53;;;19.30;82.10;;;;;;4930135;29;21173;-79
2022/06/16 04:41:41;;;;;;;5.30;1.90;;;19.30;82.40;;;;;;4937089;29;20592;-79
2022/06/16 04:44:10;;;;;;;2.57;1.87;;;19.30;82.80;;;;;;4953654;29;20735;-80
2022/06/16 04:46:37;;;;;;;2.43;1.23;;;19.30;82.80;;;;;;4937570;29;20576;-75
2022/06/16 04:49:04;;;;;;;2.53;1.70;;;19.30;83.10;;;;;;4921651;29;20576;-75
2022/06/16 04:51:38;;;;;;;2.03;1.40;;;19.30;83.20;;;;;;4952969;29;20575;-75
2022/06/16 04:54:06;;;;;;;3.10;1.57;;;19.30;83.40;;;;;;4937478;29;20632;-75
2022/06/16 04:56:41;;;;;;;3.13;1.60;;;19.30;83.70;;;;;;4936801;29;20583;-75
2022/06/16 04:59:22;;;;;;;3.93;1.40;;;19.30;83.80;;;;;;4937357;29;20658;-75
2022/06/16 05:02:08;;;;;;;3.00;1.37;;;19.30;84.00;;;;;;4958576;28;20698;-74
2022/06/16 05:04:50;;;;;;;5.30;1.40;;;19.30;84.00;;;;;;4937540;29;20564;-74
2022/06/16 05:07:28;;;;;;;4.80;1.50;;;19.30;84.30;;;;;;4937417;29;20558;-75
2022/06/16 05:10:26;;;;;;;6.37;1.30;;;19.40;84.80;;;;;;4938716;29;20589;-75
2022/06/16 05:13:06;;;;;;;3.47;1.30;;;19.50;85.20;;;;;;4952745;29;21338;-75
2022/06/16 05:15:54;;;;;;;2.80;1.27;;;19.60;85.50;;;;;;4954454;29;20568;-75
2022/06/16 05:18:31;;;;;;;3.57;1.67;;;19.70;85.30;;;;;;4937302;29;20547;-75
2022/06/16 05:21:09;;;;;;;3.70;1.37;;;19.80;84.90;;;;;;4936338;29;20571;-75
2022/06/16 05:24:01;;;;;;;4.33;1.27;;;19.90;85.40;;;;;;4918016;29;20632;-75
2022/06/16 05:26:47;;;;;;;3.20;1.10;;;19.90;84.20;;;;;;4953753;29;20603;-75
2022/06/16 05:29:28;;;;;;;2.03;1.40;;;20.00;83.90;;;;;;4921131;29;20583;-79
2022/06/16 05:32:26;;;;;;;2.10;1.40;;;20.00;83.80;;;;;;4943671;29;20678;-79
2022/06/16 05:35:18;;;;;;;2.60;1.30;;;20.10;83.60;;;;;;4953076;29;21015;-79
2022/06/16 05:37:53;;;;;;;2.57;1.60;;;20.20;83.90;;;;;;4942139;29;20566;-79
2022/06/16 05:40:39;;;;;;;4.27;1.17;;;20.30;83.70;;;;;;4939076;29;20584;-79
2022/06/16 05:43:20;;;;;;;1.90;1.40;;;20.50;84.30;;;;;;4953718;28;20603;-79
2022/06/16 05:45:53;;;;;;;2.20;1.10;;;20.90;85.60;;;;;;4953696;29;20680;-79
2022/06/16 05:48:23;;;;;;;3.90;1.20;;;21.30;85.10;;;;;;4937213;29;20580;-79
2022/06/16 05:50:49;;;;;;;6.03;1.87;;;21.90;85.70;;;;;;4952076;29;20584;-78
2022/06/16 05:53:15;;;;;;;4.60;1.60;;;22.60;86.10;;;;;;4936422;29;20716;-78
2022/06/16 05:55:44;;;;;;;3.00;1.37;;;23.50;86.10;;;;;;4936783;29;20172;-79
2022/06/16 05:58:10;;;;;;;2.90;0.90;;;24.50;86.40;;;;;;4936671;29;20583;-78
2022/06/16 06:00:50;;;;;;;2.07;1.10;;;25.50;85.20;;;;;;4920371;29;20580;-79
2022/06/16 06:03:21;;;;;;;2.67;1.10;;;26.70;83.00;;;;;;4936516;29;20730;-79
2022/06/16 06:05:47;;;;;;;4.47;1.27;;;27.70;80.80;;;;;;4952655;29;20666;-79
2022/06/16 06:16:37;;;;;;;2.60;1.10;;;31.30;69.30;;;;;;4940275;29;20612;-80
2022/06/16 06:19:24;;;;;;;3.70;1.27;;;32.20;63.80;;;;;;4936562;29;20691;-79
2022/06/16 06:21:58;;;;;;;3.60;1.37;;;32.80;60.50;;;;;;4935765;29;20571;-79
2022/06/16 06:24:25;;;;;;;2.07;1.03;;;33.30;58.70;;;;;;4936417;29;20623;-79
2022/06/16 06:26:56;;;;;;;2.63;0.90;;;33.90;57.70;;;;;;4936442;29;20591;-81
2022/06/16 06:29:23;;;;;;;1.83;0.83;;;34.50;56.30;;;;;;4936206;29;20590;-80
2022/06/16 06:31:49;;;;;;;3.70;1.50;;;35.10;54.80;;;;;;4935768;29;20925;-80
2022/06/16 06:34:15;;;;;;;2.30;1.23;;;35.50;53.00;;;;;;4951976;29;20661;-81
2022/06/16 06:36:41;;;;;;;2.37;0.90;;;36.10;52.00;;;;;;4953457;29;20184;-78
2022/06/16 06:39:10;;;;;;;2.17;0.90;;;36.50;50.00;;;;;;4920568;29;20678;-79
2022/06/16 06:41:36;;;;;;;2.63;1.00;;;36.80;48.80;;;;;;4952510;29;20656;-79
2022/06/16 06:44:02;;;;;;;4.57;1.23;;;37.20;47.90;;;;;;4953255;28;21290;-79
2022/06/16 06:46:28;;;;;;;3.33;1.40;;;37.60;47.20;;;;;;4920305;29;20262;-79
2022/06/16 06:48:56;;;;;;;3.17;1.30;;;37.90;45.90;;;;;;4953668;29;20168;-78
2022/06/16 06:51:22;;;;;;;2.10;0.80;;;38.10;44.90;;;;;;4922633;29;20265;-78
2022/06/16 06:53:48;;;;;;;4.60;1.60;;;38.50;44.70;;;;;;4953681;28;20643;-79
2022/06/16 06:56:14;;;;;;;1.60;0.80;;;38.70;43.60;;;;;;4935800;29;21156;-78
2022/06/16 06:58:40;;;;;;;3.53;1.10;;;38.90;42.60;;;;;;4936236;29;20176;-79
2022/06/16 07:01:06;;;;;;;1.77;0.90;;;39.10;42.30;;;;;;4952372;29;20638;-79
2022/06/16 07:03:33;;;;;;;2.07;0.87;;;39.20;41.50;;;;;;4951979;29;20652;-79
2022/06/16 07:06:04;;;;;;;2.00;0.90;;;39.40;41.30;;;;;;4953583;29;20172;-78
2022/06/16 07:08:31;;;;;;;3.40;1.00;;;39.60;40.70;;;;;;4953391;29;20580;-78
2022/06/16 07:10:57;;;;;;;2.10;1.10;;;40.00;40.60;;;;;;4952607;29;20582;-81
2022/06/16 07:13:24;;;;;;;2.50;1.37;;;40.20;39.60;;;;;;4953032;28;20611;-79
2022/06/16 07:15:50;;;;;;;1.63;0.90;;;40.20;38.80;;;;;;4953666;29;20583;-79
2022/06/16 07:18:15;;;;;;;3.23;1.20;;;40.30;38.40;;;;;;4955411;29;20576;-79
2022/06/16 07:20:41;;;;;;;3.20;1.07;;;40.40;37.90;;;;;;4955440;29;20591;-79
2022/06/16 07:23:07;;;;;;;13.10;2.90;;;40.50;37.60;;;;;;4939640;29;20204;-79
2022/06/16 07:25:33;;;;;;;2.60;1.00;;;40.80;37.70;;;;;;4956654;29;21056;-80
2022/06/16 07:28:00;;;;;;;2.33;1.23;;;40.90;37.30;;;;;;4959228;29;20587;-78
2022/06/16 07:30:30;;;;;;;5.00;1.30;;;41.10;36.60;;;;;;4939573;29;20184;-80
2022/06/16 07:32:55;;;;;;;1.90;1.10;;;41.10;35.50;;;;;;4925367;29;20664;-80
2022/06/16 07:35:23;;;;;;;2.07;1.00;;;41.10;35.50;;;;;;4935801;29;20597;-81
2022/06/16 07:37:49;;;;;;;2.17;1.10;;;41.20;35.60;;;;;;4935546;29;20573;-81
2022/06/16 07:40:17;;;;;;;2.23;0.90;;;41.40;35.20;;;;;;4935272;29;20608;-81
2022/06/16 07:42:46;;;;;;;1.90;1.00;;;41.40;34.90;;;;;;4934041;29;20616;-81
2022/06/16 07:45:15;;;;;;;2.00;1.10;;;41.50;34.80;;;;;;4935630;29;20591;-80
2022/06/16 07:47:42;;;;;;;1.73;0.90;;;41.60;34.60;;;;;;4920583;29;20982;-77
2022/06/16 07:50:09;;;;;;;3.40;1.03;;;41.80;34.30;;;;;;4935957;29;20663;-77
2022/06/16 07:52:36;;;;;;;2.60;1.00;;;41.90;34.30;;;;;;4951283;29;20661;-77
2022/06/16 07:55:06;;;;;;;4.40;1.13;;;42.00;33.90;;;;;;4935889;29;20933;-77
2022/06/16 07:57:34;;;;;;;1.77;1.10;;;42.10;33.00;;;;;;4936770;29;20572;-77
2022/06/16 08:00:00;;;;;;;2.90;1.33;;;42.10;32.30;;;;;;4936456;29;20985;-76
2022/06/16 08:02:28;;;;;;;2.10;1.00;;;42.10;32.50;;;;;;4936121;29;20972;-76
2022/06/16 08:04:53;;;;;;;2.03;0.90;;;42.10;31.90;;;;;;4940581;29;20613;-76
2022/06/16 08:07:19;;;;;;;1.70;0.80;;;42.20;32.20;;;;;;4936896;29;20640;-77
2022/06/16 08:09:46;;;;;;;2.13;0.97;;;42.20;32.00;;;;;;4936473;29;20173;-75
2022/06/16 08:12:12;;;;;;;2.67;0.97;;;42.30;32.00;;;;;;4935720;29;20176;-77
2022/06/16 08:14:41;;;;;;;2.97;1.30;;;42.30;31.70;;;;;;4936219;29;20647;-77
2022/06/16 08:17:12;;;;;;;2.03;0.90;;;42.30;31.00;;;;;;4936507;29;20576;-77
2022/06/16 08:19:38;;;;;;;2.50;0.90;;;42.40;31.20;;;;;;4935953;29;20577;-78
2022/06/16 08:22:04;;;;;;;2.60;1.17;;;42.50;30.80;;;;;;4933893;29;20612;-77
2022/06/16 08:24:30;;;;;;;2.13;0.90;;;42.50;30.40;;;;;;4924852;29;20580;-78
2022/06/16 08:26:56;;;;;;;2.03;1.00;;;42.40;30.00;;;;;;4936077;29;20577;-77
2022/06/16 08:29:22;;;;;;;2.63;0.90;;;42.10;30.00;;;;;;4936180;29;20320;-76
2022/06/16 08:31:48;;;;;;;4.00;1.10;;;42.00;30.10;;;;;;4931325;29;20633;-77
2022/06/16 08:34:14;;;;;;;3.20;1.10;;;42.00;30.00;;;;;;4933152;29;20687;-79
2022/06/16 08:36:40;;;;;;;2.90;1.00;;;42.00;30.10;;;;;;4935935;29;20189;-79
2022/06/16 08:39:07;;;;;;;1.73;1.00;;;42.00;30.30;;;;;;4936875;29;20304;-79
2022/06/16 08:41:46;;;;;;;2.50;1.00;;;42.10;30.10;;;;;;4937272;29;20173;-80
2022/06/16 08:44:27;;;;;;;4.27;1.00;;;42.10;30.00;;;;;;4938143;29;21011;-81
2022/06/16 08:47:25;;;;;;;2.00;0.83;;;42.30;30.60;;;;;;4935758;29;20569;-79
2022/06/16 08:50:06;;;;;;;2.40;0.97;;;42.40;30.10;;;;;;4931959;29;20605;-80
2022/06/16 08:52:37;;;;;;;2.67;1.10;;;42.50;30.00;;;;;;4921031;29;20580;-80
2022/06/16 08:55:22;;;;;;;1.50;0.80;;;42.50;30.00;;;;;;4936388;29;20608;-81
2022/06/16 08:58:15;;;;;;;3.00;0.90;;;42.50;29.90;;;;;;4957408;29;20597;-82
2022/06/16 09:00:48;;;;;;;3.10;1.00;;;42.40;29.10;;;;;;4925297;29;20604;-81
2022/06/16 09:04:07;;;;;;;2.60;0.90;;;42.20;29.00;;;;;;4923805;29;21170;-78
2022/06/16 09:06:45;;;;;;;3.37;1.20;;;41.50;29.30;;;;;;4860751;29;20813;-79
2022/06/16 09:12:19;;;;;;;2.90;1.10;;;41.70;29.60;;;;;;4934986;29;20738;-77
2022/06/16 09:15:11;;;;;;;1.50;0.80;;;41.50;28.70;;;;;;4935162;29;20867;-77
2022/06/16 09:17:53;;;;;;;2.43;0.90;;;41.70;29.40;;;;;;4902497;29;20608;-78
2022/06/16 09:20:28;;;;;;;2.67;0.90;;;41.80;28.70;;;;;;4936226;29;20612;-77
2022/06/16 09:23:20;;;;;;;2.00;0.70;;;41.90;29.00;;;;;;4902130;29;21227;-75
2022/06/16 09:25:59;;;;;;;4.23;1.50;;;41.90;29.00;;;;;;4930232;29;20960;-77
2022/06/16 09:29:06;;;;;;;2.90;0.80;;;42.10;28.50;;;;;;4934390;29;20572;-77
2022/06/16 09:31:49;;;;;;;2.83;0.80;;;42.10;28.10;;;;;;4917068;29;21161;-77
2022/06/16 09:34:21;;;;;;;3.28;1.02;;;42.00;27.60;;;;;;4932170;29;20748;-77
2022/06/16 09:36:53;;;;;;;2.27;0.90;;;41.10;27.00;;;;;;4933585;29;20172;-78
2022/06/16 09:39:34;;;;;;;7.40;1.00;;;41.30;27.30;;;;;;4933001;29;20722;-78
2022/06/16 09:45:06;;;;;;;1.70;0.90;;;41.30;27.70;;;;;;4933490;29;20661;-76
2022/06/16 09:47:53;;;;;;;2.27;0.60;;;41.50;27.40;;;;;;4949508;29;20644;-77
2022/06/16 09:50:34;;;;;;;2.90;0.80;;;41.70;27.60;;;;;;4934252;29;20588;-77
2022/06/16 09:53:03;;;;;;;1.90;0.70;;;41.80;27.40;;;;;;4933413;29;20616;-76
2022/06/16 09:55:35;;;;;;;1.70;0.77;;;41.80;27.00;;;;;;4938271;29;20569;-76
2022/06/16 09:58:24;;;;;;;1.40;0.73;;;41.80;26.60;;;;;;4934627;29;20573;-76
2022/06/16 10:00:54;;;;;;;1.70;0.80;;;41.50;26.40;;;;;;4931987;29;20596;-80
2022/06/16 10:03:29;;;;;;;4.83;0.70;;;41.40;26.70;;;;;;4934398;29;20639;-79
2022/06/16 10:06:19;;;;;;;1.87;0.60;;;41.20;26.70;;;;;;4949514;29;20572;-77
2022/06/16 10:08:59;;;;;;;1.73;0.70;;;41.20;26.70;;;;;;4949317;29;21220;-76
2022/06/16 10:11:54;;;;;;;1.87;0.60;;;41.20;27.10;;;;;;4933775;29;20573;-76
2022/06/16 10:14:56;;;;;;;1.93;0.70;;;41.20;26.60;;;;;;4891963;29;20633;-76
2022/06/16 10:17:23;;;;;;;2.20;0.70;;;41.30;26.60;;;;;;4934883;29;20576;-76
2022/06/16 10:19:51;;;;;;;1.40;0.60;;;41.20;26.10;;;;;;4934004;29;21152;-75
2022/06/16 10:22:21;;;;;;;1.77;0.67;;;41.10;26.10;;;;;;4932639;29;20576;-75
2022/06/16 10:25:15;;;;;;;1.90;0.60;;;41.00;26.50;;;;;;4917408;29;20629;-75
2022/06/16 10:27:51;;;;;;;1.37;0.70;;;41.10;26.30;;;;;;4933259;29;20568;-75
2022/06/16 10:30:22;;;;;;;2.10;0.70;;;41.20;26.10;;;;;;4930827;29;20946;-76
2022/06/16 10:33:10;;;;;;;2.03;0.60;;;41.20;26.40;;;;;;4941140;29;20624;-75
2022/06/16 10:35:37;;;;;;;1.70;0.60;;;41.10;26.10;;;;;;4932953;29;21032;-76
2022/06/16 10:38:02;;;;;;;1.90;0.60;;;41.10;26.10;;;;;;4958942;23;20734;-78
2022/06/16 10:40:41;;;;;;;2.17;0.67;;;41.10;26.10;;;;;;4941242;29;20576;-78
2022/06/16 10:43:18;;;;;;;1.63;0.60;;;41.10;26.00;;;;;;4950749;29;20180;-78
2022/06/16 10:46:02;;;;;;;1.60;0.60;;;41.20;26.00;;;;;;4920248;29;20740;-78
2022/06/16 10:48:28;;;;;;;2.07;0.70;;;41.20;26.00;;;;;;4962677;28;20697;-77
2022/06/16 10:51:11;;;;;;;2.23;0.70;;;41.00;25.90;;;;;;4971699;28;20567;-78
2022/06/16 10:53:43;;;;;;;1.47;0.70;;;40.90;25.70;;;;;;4955416;28;20175;-79
2022/06/16 10:56:18;;;;;;;2.57;0.67;;;40.70;25.70;;;;;;4977472;28;20586;-80
2022/06/16 10:59:31;;;;;;;2.03;0.80;;;40.40;25.80;;;;;;4958665;28;20661;-79
2022/06/16 11:02:13;;;;;;;2.30;0.67;;;40.10;26.00;;;;;;4954589;28;20591;-79
2022/06/16 11:04:41;;;;;;;2.53;0.60;;;39.70;26.20;;;;;;4976112;28;20730;-80
2022/06/16 11:07:11;;;;;;;2.00;0.70;;;39.50;26.60;;;;;;4976060;28;20599;-77
2022/06/16 11:09:37;;;;;;;1.90;0.80;;;39.30;27.00;;;;;;4942270;28;20617;-78
2022/06/16 11:12:13;;;;;;;2.47;0.70;;;39.00;27.00;;;;;;4975603;28;20583;-79
2022/06/16 11:14:49;;;;;;;1.53;0.70;;;39.00;26.90;;;;;;4958621;28;20651;-80
2022/06/16 11:17:21;;;;;;;2.13;0.70;;;38.80;27.20;;;;;;4958401;28;20600;-79
2022/06/16 11:20:01;;;;;;;2.80;0.70;;;38.70;27.60;;;;;;4975599;28;20637;-78
2022/06/16 11:22:32;;;;;;;2.63;0.70;;;38.50;27.10;;;;;;4975282;28;20942;-77
2022/06/16 11:25:17;;;;;;;3.93;0.70;;;38.30;27.10;;;;;;4958280;28;20977;-79
2022/06/16 11:28:02;;;;;;;1.27;0.50;;;38.10;27.10;;;;;;4958352;28;20709;-78
2022/06/16 11:30:37;;;;;;;1.70;0.70;;;37.90;27.00;;;;;;4957267;28;20583;-79
2022/06/16 11:33:06;;;;;;;1.50;0.70;;;37.60;26.70;;;;;;4977919;28;20968;-77
2022/06/16 11:35:49;;;;;;;1.20;0.60;;;37.30;26.90;;;;;;4975602;28;20579;-77
2022/06/16 11:38:30;;;;;;;2.33;0.80;;;37.20;27.00;;;;;;4975228;28;20625;-78
2022/06/16 11:41:03;;;;;;;2.53;0.60;;;37.00;27.00;;;;;;4974726;28;20967;-77
2022/06/16 11:43:54;;;;;;;2.00;0.67;;;36.90;27.50;;;;;;4958257;28;20622;-78
2022/06/16 11:46:43;;;;;;;1.40;0.70;;;36.80;27.60;;;;;;4975303;28;20591;-80
2022/06/16 11:49:50;;;;;;;2.10;0.67;;;36.60;26.90;;;;;;4958781;28;20633;-77
2022/06/16 11:52:28;;;;;;;1.53;0.60;;;36.50;27.10;;;;;;4905426;28;20591;-78
2022/06/16 11:55:18;;;;;;;2.90;0.70;;;36.30;26.90;;;;;;4926554;28;20575;-78
2022/06/16 11:58:10;;;;;;;1.90;0.60;;;36.00;26.70;;;;;;4975401;28;20613;-78
2022/06/16 12:00:55;;;;;;;2.40;0.60;;;35.70;27.40;;;;;;4957165;28;20596;-78
2022/06/16 12:03:51;;;;;;;1.67;0.67;;;35.40;26.80;;;;;;4975271;28;20659;-78
2022/06/16 12:06:20;;;;;;;13.30;1.10;;;35.20;27.00;;;;;;4974766;28;20685;-78
2022/06/16 12:09:12;;;;;;;2.23;0.70;;;35.00;27.10;;;;;;4958932;28;21179;-78
2022/06/16 12:11:55;;;;;;;2.47;0.70;;;34.80;27.30;;;;;;4974137;28;20615;-79
2022/06/16 12:14:31;;;;;;;2.43;0.70;;;34.70;27.30;;;;;;4974978;28;20575;-78
2022/06/16 12:17:09;;;;;;;1.50;0.60;;;34.40;27.40;;;;;;4974774;28;20573;-78
2022/06/16 12:20:08;;;;;;;1.27;0.50;;;34.40;27.70;;;;;;4941595;28;21014;-78
2022/06/16 12:22:50;;;;;;;1.50;0.70;;;34.20;27.20;;;;;;4957154;28;20603;-79
2022/06/16 12:25:21;;;;;;;1.90;0.60;;;34.10;27.60;;;;;;4974947;28;20655;-78
2022/06/16 12:27:56;;;;;;;1.97;0.70;;;33.90;27.80;;;;;;4974932;28;20745;-79
2022/06/16 12:30:32;;;;;;;2.20;0.70;;;33.70;27.80;;;;;;4941034;28;20580;-78
2022/06/16 12:33:06;;;;;;;2.43;0.70;;;33.60;28.00;;;;;;4957276;28;20582;-78
2022/06/16 12:35:41;;;;;;;2.30;0.80;;;33.40;28.10;;;;;;4957342;28;20584;-78
2022/06/16 12:38:31;;;;;;;2.47;0.63;;;33.20;28.00;;;;;;4974101;28;21301;-78
2022/06/16 12:41:12;;;;;;;2.20;0.70;;;33.00;28.40;;;;;;4974087;28;20612;-78
2022/06/16 12:43:42;;;;;;;2.83;0.60;;;32.80;28.20;;;;;;4974633;28;21018;-78
2022/06/16 12:46:38;;;;;;;1.77;1.00;;;32.60;28.30;;;;;;4978712;28;20563;-78
2022/06/16 12:49:27;;;;;;;2.43;0.80;;;32.30;28.40;;;;;;4956897;28;20702;-79
2022/06/16 12:52:01;;;;;;;1.30;0.50;;;32.00;28.30;;;;;;4956207;28;20570;-77
2022/06/16 12:54:41;;;;;;;1.87;0.60;;;31.60;28.20;;;;;;4974270;28;20579;-77
2022/06/16 12:57:14;;;;;;;1.47;0.60;;;31.30;28.40;;;;;;4974072;28;20606;-76
2022/06/16 13:00:11;;;;;;;2.13;0.70;;;31.00;28.60;;;;;;4974043;28;20635;-78
2022/06/16 13:02:43;;;;;;;1.87;0.70;;;30.70;29.10;;;;;;4940306;28;20633;-78
2022/06/16 13:05:09;;;;;;;2.17;0.70;;;30.50;29.00;;;;;;4973864;28;20652;-78
2022/06/16 13:07:39;;;;;;;1.60;0.80;;;30.20;29.20;;;;;;4974419;28;20626;-78
2022/06/16 13:10:07;;;;;;;2.60;0.90;;;30.10;29.70;;;;;;4974378;28;20909;-78
2022/06/16 13:12:38;;;;;;;2.90;0.80;;;29.90;29.60;;;;;;4973874;28;20627;-80
2022/06/16 13:15:14;;;;;;;2.07;0.77;;;29.70;30.10;;;;;;4974405;28;20583;-79
2022/06/16 13:17:47;;;;;;;1.53;0.70;;;29.60;30.60;;;;;;4973887;28;20610;-79
2022/06/16 13:20:17;;;;;;;2.13;0.87;;;29.40;30.60;;;;;;4957333;28;20602;-79
2022/06/16 13:22:55;;;;;;;2.80;0.60;;;29.30;30.70;;;;;;4960510;28;20567;-79
2022/06/16 13:25:42;;;;;;;1.80;0.80;;;29.30;30.90;;;;;;4955173;28;20610;-79
2022/06/16 13:28:34;;;;;;;2.33;0.60;;;29.10;31.20;;;;;;4961242;28;20620;-79
2022/06/16 13:31:09;;;;;;;2.03;0.80;;;29.10;31.10;;;;;;4962911;28;20617;-78
2022/06/16 13:33:52;;;;;;;1.60;0.70;;;29.10;31.00;;;;;;4951868;28;20586;-79
2022/06/16 13:36:27;;;;;;;3.00;0.63;;;29.00;31.60;;;;;;4986700;28;20583;-78
2022/06/16 13:38:54;;;;;;;1.70;0.70;;;29.00;31.70;;;;;;4956620;28;21007;-79
2022/06/16 13:41:34;;;;;;;2.33;0.80;;;29.00;31.60;;;;;;4955743;28;20575;-79
2022/06/16 13:44:08;;;;;;;1.40;0.70;;;28.80;32.00;;;;;;4973535;28;20626;-79
2022/06/16 13:46:48;;;;;;;4.73;0.90;;;28.70;31.90;;;;;;4973942;28;21173;-79
2022/06/16 13:49:54;;;;;;;2.67;1.10;;;28.70;32.40;;;;;;4973420;28;20614;-79
2022/06/16 13:52:37;;;;;;;1.73;0.80;;;28.70;32.20;;;;;;4972784;28;20575;-79